createdAt,value
2023-04-17T00:01:38.335Z,102147.72
2023-04-17T00:04:07.134Z,102148.69
2023-04-17T00:06:33.930Z,102147.78
2023-04-17T00:09:00.843Z,102149.44
2023-04-17T00:11:27.512Z,102145.09
2023-04-17T00:13:54.124Z,102142.56
2023-04-17T00:16:20.805Z,102148.72
2023-04-17T00:18:47.619Z,102145.16
2023-04-17T00:21:14.301Z,102142.53
2023-04-17T00:23:41.021Z,102145.13
2023-04-17T00:26:08.793Z,102144.25
2023-04-17T00:28:35.603Z,102143.31
2023-04-17T00:31:02.208Z,102131.06
2023-04-17T00:33:28.817Z,102138.09
2023-04-17T00:35:55.384Z,102144.25
2023-04-17T00:38:21.960Z,102148.56
2023-04-17T00:40:48.978Z,102142.47
2023-04-17T00:43:17.902Z,102151.19
2023-04-17T00:45:47.509Z,102141.63
2023-04-17T00:48:17.848Z,102148.59
2023-04-17T00:50:44.989Z,102145.97
2023-04-17T00:53:12.641Z,102146.81
2023-04-17T00:55:41.889Z,102142.34
2023-04-17T00:58:09.180Z,102138.78
2023-04-17T01:00:35.771Z,102152.66
2023-04-17T01:03:02.996Z,102145.63
2023-04-17T01:05:29.840Z,102147.31
2023-04-17T01:07:58.208Z,102137.69
2023-04-17T01:10:24.868Z,102137.69
2023-04-17T01:13:05.027Z,102141.97
2023-04-17T01:15:31.765Z,102135.84
2023-04-17T01:17:58.467Z,102138.38
2023-04-17T01:20:31.144Z,102136.59
2023-04-17T01:22:59.900Z,102140.81
2023-04-17T01:25:27.853Z,102139.09
2023-04-17T01:27:55.056Z,102132.91
2023-04-17T01:30:22.490Z,102136.34
2023-04-17T01:32:49.241Z,102132.84
2023-04-17T01:35:16.067Z,102131.03
2023-04-17T01:37:43.505Z,102131.91
2023-04-17T01:40:10.451Z,102133.59
2023-04-17T01:42:37.080Z,102125.78
2023-04-17T01:45:07.464Z,102138.78
2023-04-17T01:47:34.131Z,102132.66
2023-04-17T01:50:01.131Z,102140.41
2023-04-17T01:52:27.765Z,102141.25
2023-04-17T01:54:54.390Z,102144.69
2023-04-17T01:57:21.174Z,102142.94
2023-04-17T01:59:47.913Z,102138.63
2023-04-17T02:02:14.585Z,102143.88
2023-04-17T02:04:41.279Z,102138.69
2023-04-17T02:07:08.244Z,102143.00
2023-04-17T02:09:34.936Z,102146.47
2023-04-17T02:12:02.367Z,102142.94
2023-04-17T02:14:30.609Z,102144.69
2023-04-17T02:16:57.621Z,102142.09
2023-04-17T02:19:24.226Z,102142.97
2023-04-17T02:21:50.825Z,102144.72
2023-04-17T02:24:17.410Z,102143.91
2023-04-17T02:26:44.026Z,102146.53
2023-04-17T02:29:11.348Z,102143.09
2023-04-17T02:31:41.085Z,102143.19
2023-04-17T02:34:07.734Z,102147.59
2023-04-17T02:36:35.145Z,102146.72
2023-04-17T02:39:01.919Z,102145.03
2023-04-17T02:41:28.480Z,102152.88
2023-04-17T02:43:56.790Z,102144.97
2023-04-17T02:46:26.018Z,102154.50
2023-04-17T02:48:52.671Z,102148.38
2023-04-17T02:51:19.328Z,102152.66
2023-04-17T02:53:46.140Z,102158.69
2023-04-17T02:56:12.753Z,102162.06
2023-04-17T02:58:39.765Z,102155.03
2023-04-17T03:01:06.411Z,102150.63
2023-04-17T03:03:35.186Z,102160.22
2023-04-17T03:06:03.328Z,102161.13
2023-04-17T03:08:32.595Z,102158.63
2023-04-17T03:10:59.712Z,102160.47
2023-04-17T03:13:27.330Z,102163.25
2023-04-17T03:15:53.911Z,102157.25
2023-04-17T03:18:20.470Z,102156.56
2023-04-17T03:20:47.085Z,102152.31
2023-04-17T03:23:13.689Z,102155.16
2023-04-17T03:25:40.460Z,102151.00
2023-04-17T03:28:07.871Z,102149.44
2023-04-17T03:30:34.490Z,102158.31
2023-04-17T03:33:01.316Z,102150.66
2023-04-17T03:35:28.057Z,102153.47
2023-04-17T03:37:54.720Z,102158.03
2023-04-17T03:40:21.397Z,102149.69
2023-04-17T03:42:48.772Z,102150.88
2023-04-17T03:45:16.960Z,102149.50
2023-04-17T03:47:44.105Z,102150.75
2023-04-17T03:50:10.910Z,102150.41
2023-04-17T03:52:37.518Z,102154.44
2023-04-17T03:55:04.623Z,102154.00
2023-04-17T03:57:32.901Z,102152.59
2023-04-17T03:59:59.586Z,102147.59
2023-04-17T04:02:26.407Z,102160.88
2023-04-17T04:04:54.441Z,102155.78
2023-04-17T04:07:21.582Z,102152.44
2023-04-17T04:09:48.147Z,102150.81
2023-04-17T04:12:14.806Z,102148.25
2023-04-17T04:14:42.125Z,102139.56
2023-04-17T04:17:08.918Z,102143.09
2023-04-17T04:19:35.601Z,102139.66
2023-04-17T04:22:03.749Z,102142.34
2023-04-17T04:24:34.137Z,102137.13
2023-04-17T04:27:05.417Z,102133.66
2023-04-17T04:29:32.855Z,102136.31
2023-04-17T04:32:00.009Z,102132.88
2023-04-17T04:34:30.035Z,102131.09
2023-04-17T04:36:57.461Z,102129.34
2023-04-17T04:39:24.104Z,102132.06
2023-04-17T04:41:53.708Z,102139.13
2023-04-17T04:44:20.662Z,102135.75
2023-04-17T04:46:47.474Z,102140.28
2023-04-17T04:49:14.486Z,102136.03
2023-04-17T04:51:41.144Z,102136.09
2023-04-17T04:54:10.952Z,102138.81
2023-04-17T04:56:39.130Z,102142.38
2023-04-17T04:59:05.897Z,102136.28
2023-04-17T05:01:36.120Z,102136.38
2023-04-17T05:04:06.873Z,102138.22
2023-04-17T05:06:44.746Z,102139.16
2023-04-17T05:09:13.624Z,102148.81
2023-04-17T05:11:43.392Z,102145.34
2023-04-17T05:14:15.770Z,102142.75
2023-04-17T05:16:43.419Z,102144.53
2023-04-17T05:19:10.401Z,102134.00
2023-04-17T05:21:37.522Z,102138.41
2023-04-17T05:24:06.439Z,102145.38
2023-04-17T05:26:33.035Z,102141.81
2023-04-17T05:29:01.177Z,102147.00
2023-04-17T18:34:51.696Z,101765.06
2023-04-17T18:37:18.423Z,101764.28
2023-04-17T18:39:46.378Z,101758.13
2023-04-17T18:42:16.965Z,101752.84
2023-04-17T18:44:43.643Z,101751.06
2023-04-17T18:47:10.294Z,101744.84
2023-04-17T18:49:36.913Z,101752.75
2023-04-17T18:52:03.711Z,101753.63
2023-04-17T18:54:30.340Z,101746.59
2023-04-17T18:56:58.067Z,101747.44
2023-04-17T18:59:26.195Z,101751.84
2023-04-17T19:01:52.977Z,101746.59
2023-04-17T19:04:22.171Z,101745.66
2023-04-17T19:06:48.738Z,101741.25
2023-04-17T19:09:15.467Z,101736.84
2023-04-17T19:11:42.135Z,101736.84
2023-04-17T19:14:08.725Z,101740.44
2023-04-17T19:16:35.657Z,101733.47
2023-04-17T19:19:02.784Z,101735.38
2023-04-17T19:21:31.230Z,101729.25
2023-04-17T19:23:57.794Z,101724.03
2023-04-17T19:26:25.561Z,101724.94
2023-04-17T19:28:52.130Z,101728.53
2023-04-17T19:31:18.843Z,101720.75
2023-04-17T19:33:48.217Z,101716.53
2023-04-17T19:36:17.889Z,101720.19
2023-04-17T19:38:44.427Z,101712.38
2023-04-17T19:41:15.105Z,101716.88
2023-04-17T19:43:42.643Z,101707.31
2023-04-17T19:46:09.837Z,101718.78
2023-04-17T19:48:37.276Z,101713.59
2023-04-17T19:51:07.050Z,101709.25
2023-04-17T19:53:38.419Z,101705.88
2023-04-17T19:56:08.305Z,101708.63
2023-04-17T19:58:35.942Z,101712.03
2023-04-17T20:01:03.001Z,101714.44
2023-04-17T20:03:30.606Z,101710.72
2023-04-17T20:05:58.693Z,101710.47
2023-04-17T20:08:26.109Z,101704.19
2023-04-17T20:10:52.867Z,101704.06
2023-04-17T20:13:19.546Z,101704.88
2023-04-17T20:15:46.233Z,101698.66
2023-04-17T20:18:12.850Z,101697.66
2023-04-17T20:20:39.419Z,101685.41
2023-04-17T20:23:06.884Z,101694.13
2023-04-17T20:25:33.502Z,101696.03
2023-04-17T20:28:02.678Z,101688.13
2023-04-17T20:30:30.312Z,101690.84
2023-04-17T20:32:57.202Z,101697.94
2023-04-17T20:35:24.783Z,101689.28
2023-04-17T20:37:52.949Z,101693.00
2023-04-17T20:40:20.038Z,101688.59
2023-04-17T20:42:47.479Z,101687.78
2023-04-17T20:45:16.052Z,101685.09
2023-04-17T20:47:56.004Z,101688.56
2023-04-17T20:50:26.410Z,101686.06
2023-04-17T20:52:53.020Z,101688.72
2023-04-17T20:55:19.985Z,101681.72
2023-04-17T20:57:47.634Z,101687.91
2023-04-17T21:00:14.666Z,101682.66
2023-04-17T21:02:41.944Z,101680.94
2023-04-17T21:05:09.931Z,101681.06
2023-04-17T21:07:38.357Z,101685.63
2023-04-17T21:10:05.484Z,101680.50
2023-04-17T21:12:33.195Z,101685.91
2023-04-17T21:14:59.839Z,101681.56
2023-04-17T21:17:26.571Z,101687.84
2023-04-17T21:19:56.024Z,101683.66
2023-04-17T21:22:22.710Z,101689.91
2023-04-17T21:24:49.318Z,101682.00
2023-04-17T21:27:16.849Z,101679.47
2023-04-17T21:29:43.426Z,101676.09
2023-04-17T21:32:10.049Z,101673.59
2023-04-17T21:34:38.542Z,101679.00
2023-04-17T21:37:05.211Z,101673.84
2023-04-17T21:39:33.264Z,101673.94
2023-04-17T21:42:01.009Z,101677.53
2023-04-17T21:44:28.238Z,101669.63
2023-04-17T21:46:54.842Z,101667.97
2023-04-17T21:49:23.779Z,101670.63
2023-04-17T21:51:50.575Z,101675.97
2023-04-17T21:54:17.303Z,101669.94
2023-04-17T21:56:44.771Z,101668.22
2023-04-17T21:59:11.370Z,101665.63
2023-04-17T22:01:38.217Z,101663.94
2023-04-17T22:04:05.139Z,101669.25
2023-04-17T22:06:35.817Z,101663.16
2023-04-17T22:09:05.970Z,101665.03
2023-04-17T22:11:33.806Z,101663.34
2023-04-17T22:14:00.486Z,101664.31
2023-04-17T22:16:27.185Z,101663.53
2023-04-17T22:18:55.060Z,101668.94
2023-04-17T22:21:21.677Z,101664.59
2023-04-17T22:23:48.302Z,101671.75
2023-04-17T22:26:15.056Z,101669.84
2023-04-17T22:28:41.664Z,101671.50
2023-04-17T22:31:08.287Z,101658.31
2023-04-17T22:33:35.121Z,101668.69
2023-04-17T22:36:01.721Z,101667.78
2023-04-17T22:38:28.294Z,101659.81
2023-04-17T22:40:55.222Z,101668.63
2023-04-17T22:43:21.854Z,101669.53
2023-04-17T22:45:48.520Z,101671.31
2023-04-17T22:48:15.236Z,101664.31
2023-04-17T22:50:42.832Z,101662.59
2023-04-17T22:53:09.556Z,101663.50
2023-04-17T22:55:37.108Z,101666.22
2023-04-17T22:58:04.414Z,101660.09
2023-04-17T23:00:31.924Z,101664.47
2023-04-17T23:02:58.673Z,101661.84
2023-04-17T23:05:25.511Z,101660.16
2023-04-17T23:07:52.396Z,101663.72
2023-04-17T23:10:21.789Z,101652.41
2023-04-17T23:12:48.347Z,101661.16
2023-04-17T23:15:15.035Z,101657.75
2023-04-17T23:17:42.422Z,101652.53
2023-04-17T23:20:09.429Z,101662.25
2023-04-17T23:22:36.619Z,101657.88
2023-04-17T23:25:04.134Z,101651.78
2023-04-17T23:27:31.626Z,101641.28
2023-04-17T23:29:59.368Z,101644.88
2023-04-17T23:32:27.257Z,101650.16
2023-04-17T23:34:55.058Z,101653.69
2023-04-17T23:37:21.726Z,101652.91
2023-04-17T23:39:48.355Z,101649.44
2023-04-17T23:42:15.466Z,101644.19
2023-04-17T23:44:42.140Z,101651.31
2023-04-17T23:47:10.125Z,101646.13
2023-04-17T23:49:36.790Z,101647.06
2023-04-17T23:52:03.812Z,101634.84
2023-04-17T23:54:30.442Z,101647.28
2023-04-17T23:56:57.193Z,101641.28
2023-04-17T23:59:23.788Z,101641.47
